Time;durP1;ratioP1;P1;durP2;ratioP2;P2;SDS_P1;SDS_P2;PMS_P1;PMS_P2;Temp;Humidity;BMP_temperature;BMP_pressure;BME280_temperature;BME280_humidity;BME280_pressure;Samples;Min_cycle;Max_cycle;Signal;HPM_P1;HPM_P2
2022/11/05 00:09:29;;;;;;;3.37;3.03;;;8.40;99.90;;;;;;461386;257;28044;-70
2022/11/05 00:18:29;;;;;;;3.50;3.20;;;8.30;99.90;;;;;;461402;257;27712;-70
2022/11/05 00:20:30;;;;;;;3.30;3.00;;;8.30;99.90;;;;;;461401;257;27673;-70
2022/11/05 00:27:10;;;;;;;7.30;3.37;;;8.20;99.90;;;;;;461398;257;28617;-71
2022/11/05 00:29:11;;;;;;;2.90;2.70;;;8.20;99.90;;;;;;461407;257;28501;-69
2022/11/05 00:31:13;;;;;;;3.27;3.03;;;8.20;99.90;;;;;;461417;257;28140;-71
2022/11/05 00:33:14;;;;;;;3.10;2.83;;;8.20;99.90;;;;;;461411;257;28108;-70
2022/11/05 00:35:15;;;;;;;3.37;2.80;;;8.20;99.90;;;;;;461434;257;28198;-70
2022/11/05 00:37:16;;;;;;;3.10;2.80;;;8.20;99.90;;;;;;461364;257;28080;-70
2022/11/05 00:39:18;;;;;;;2.80;2.60;;;8.20;99.90;;;;;;461428;257;28155;-70
2022/11/05 00:41:19;;;;;;;2.77;2.57;;;8.20;99.90;;;;;;461417;257;28130;-69
2022/11/05 00:45:39;;;;;;;2.63;2.43;;;8.30;99.90;;;;;;461418;257;28681;-70
2022/11/05 00:50:00;;;;;;;4.00;3.10;;;8.30;99.90;;;;;;461441;257;28488;-69
2022/11/05 00:54:21;;;;;;;3.00;2.80;;;8.30;99.90;;;;;;461431;257;27705;-70
2022/11/05 00:56:22;;;;;;;3.80;2.87;;;8.20;99.90;;;;;;461421;257;28003;-69
2022/11/05 00:58:23;;;;;;;3.13;2.83;;;8.10;99.90;;;;;;461431;257;28224;-70
2022/11/05 01:00:25;;;;;;;2.70;2.50;;;8.10;99.90;;;;;;461417;257;27814;-69
2022/11/05 01:02:26;;;;;;;3.10;2.80;;;8.00;99.90;;;;;;461408;257;27741;-69
2022/11/05 01:04:27;;;;;;;3.30;3.00;;;8.00;99.90;;;;;;461411;257;28127;-71
2022/11/05 01:06:28;;;;;;;2.87;2.60;;;8.00;99.90;;;;;;461378;257;28152;-70
2022/11/05 01:08:30;;;;;;;2.73;2.40;;;8.00;99.90;;;;;;461389;257;28059;-70
2022/11/05 01:10:31;;;;;;;2.93;2.73;;;7.90;99.90;;;;;;461430;257;28534;-69
2022/11/05 01:12:32;;;;;;;2.90;2.70;;;8.00;99.90;;;;;;461415;257;28474;-69
2022/11/05 01:14:33;;;;;;;2.93;2.70;;;8.00;99.90;;;;;;461421;257;28591;-70
2022/11/05 01:16:35;;;;;;;2.90;2.70;;;8.00;99.90;;;;;;461406;257;28510;-70
2022/11/05 01:18:36;;;;;;;2.53;2.33;;;8.00;99.90;;;;;;461421;257;28490;-69
2022/11/05 01:20:37;;;;;;;2.80;2.60;;;8.10;99.90;;;;;;460949;257;28491;-69
2022/11/05 01:22:38;;;;;;;2.60;2.40;;;8.10;99.90;;;;;;461279;257;27893;-70
2022/11/05 01:24:40;;;;;;;2.53;2.33;;;8.10;99.90;;;;;;461250;257;28088;-70
2022/11/05 01:26:41;;;;;;;3.20;2.77;;;8.10;99.90;;;;;;461304;257;28170;-70
2022/11/05 01:28:42;;;;;;;2.23;2.13;;;8.10;99.90;;;;;;461432;257;28051;-70
2022/11/05 01:30:43;;;;;;;3.20;2.90;;;8.10;99.90;;;;;;461404;257;28122;-70
2022/11/05 01:32:45;;;;;;;2.60;2.40;;;8.10;99.90;;;;;;461421;257;27994;-70
2022/11/05 01:34:46;;;;;;;2.60;2.40;;;8.20;99.90;;;;;;461406;257;27712;-70
2022/11/05 01:36:47;;;;;;;2.50;2.30;;;8.20;99.90;;;;;;461410;257;28020;-70
2022/11/05 01:38:48;;;;;;;2.63;2.43;;;8.20;99.90;;;;;;461402;257;28052;-71
2022/11/05 01:40:50;;;;;;;2.33;2.13;;;8.20;99.90;;;;;;461416;257;27696;-70
2022/11/05 01:42:51;;;;;;;2.70;2.50;;;8.20;99.90;;;;;;461401;257;28128;-70
2022/11/05 01:44:52;;;;;;;3.20;2.60;;;8.20;99.90;;;;;;461417;257;27685;-70
2022/11/05 01:46:53;;;;;;;2.23;2.13;;;8.20;99.90;;;;;;461395;257;28132;-69
2022/11/05 01:48:55;;;;;;;2.40;2.30;;;8.20;99.90;;;;;;461380;257;28494;-70
2022/11/05 01:50:56;;;;;;;2.37;2.27;;;8.20;99.90;;;;;;461396;257;29212;-70
2022/11/05 01:52:57;;;;;;;4.20;2.80;;;8.30;99.90;;;;;;461393;257;28316;-70
2022/11/05 01:54:58;;;;;;;3.63;2.77;;;8.20;99.90;;;;;;461409;257;28401;-71
2022/11/05 01:57:00;;;;;;;3.93;2.73;;;8.20;99.90;;;;;;461422;257;28151;-70
2022/11/05 01:59:01;;;;;;;2.70;2.50;;;8.20;99.90;;;;;;461416;257;28426;-71
2022/11/05 02:01:02;;;;;;;2.73;2.53;;;8.20;99.90;;;;;;461395;257;28067;-69
2022/11/05 02:03:03;;;;;;;3.70;2.87;;;8.20;99.90;;;;;;461436;257;28442;-69
2022/11/05 02:05:05;;;;;;;2.97;2.67;;;8.20;99.90;;;;;;461348;257;27691;-69
2022/11/05 02:07:06;;;;;;;6.43;3.17;;;8.20;99.90;;;;;;461370;257;27974;-70
2022/11/05 02:09:07;;;;;;;3.20;2.90;;;8.20;99.90;;;;;;461410;257;28055;-70
2022/11/05 02:11:08;;;;;;;3.60;3.30;;;8.20;99.90;;;;;;461420;257;28033;-70
2022/11/05 02:13:10;;;;;;;4.27;3.87;;;8.10;99.90;;;;;;461413;251;28114;-69
2022/11/05 02:15:11;;;;;;;4.40;3.47;;;7.90;99.90;;;;;;461403;257;27985;-70
2022/11/05 02:17:12;;;;;;;7.80;3.40;;;7.90;99.90;;;;;;461397;257;28050;-70
2022/11/05 02:19:13;;;;;;;4.93;4.03;;;7.90;99.90;;;;;;461398;257;27779;-70
2022/11/05 02:21:15;;;;;;;4.50;4.03;;;7.90;99.90;;;;;;461424;257;28075;-69
2022/11/05 02:23:16;;;;;;;4.30;3.90;;;7.80;99.90;;;;;;461411;257;27685;-70
2022/11/05 02:25:17;;;;;;;4.17;3.77;;;7.70;99.90;;;;;;461399;257;28027;-70
2022/11/05 02:27:18;;;;;;;4.20;3.70;;;7.70;99.90;;;;;;461401;257;27744;-70
2022/11/05 02:29:20;;;;;;;5.90;3.73;;;7.70;99.90;;;;;;461404;257;28146;-70
2022/11/05 02:31:21;;;;;;;6.73;5.10;;;7.70;99.90;;;;;;461402;257;28419;-69
2022/11/05 02:33:22;;;;;;;4.73;4.10;;;7.60;99.90;;;;;;461406;257;28640;-70
2022/11/05 02:35:23;;;;;;;5.60;4.50;;;7.60;99.90;;;;;;461398;257;28405;-70
2022/11/05 02:37:25;;;;;;;5.67;3.93;;;7.60;99.90;;;;;;461378;257;29452;-70
2022/11/05 02:39:26;;;;;;;6.30;3.60;;;7.60;99.90;;;;;;461389;257;28960;-70
2022/11/05 02:41:27;;;;;;;4.60;3.27;;;7.60;99.90;;;;;;461412;257;27761;-69
2022/11/05 02:43:28;;;;;;;4.20;3.30;;;7.60;99.90;;;;;;461371;257;28726;-70
2022/11/05 02:45:30;;;;;;;4.13;3.40;;;7.70;99.90;;;;;;461408;257;28049;-70
2022/11/05 02:47:31;;;;;;;3.40;3.10;;;7.70;99.90;;;;;;461387;257;27914;-70
2022/11/05 02:49:32;;;;;;;5.13;3.60;;;7.60;99.90;;;;;;461362;257;27575;-70
2022/11/05 02:51:33;;;;;;;3.50;3.20;;;7.60;99.90;;;;;;461420;257;28138;-70
2022/11/05 02:53:35;;;;;;;3.73;3.43;;;7.60;99.90;;;;;;461394;257;28080;-70
2022/11/05 02:55:36;;;;;;;4.23;3.30;;;7.60;99.90;;;;;;461399;257;27802;-70
2022/11/05 02:57:37;;;;;;;3.70;3.20;;;7.60;99.90;;;;;;461368;257;29012;-70
2022/11/05 02:59:38;;;;;;;3.10;2.80;;;7.60;99.90;;;;;;461402;257;27905;-69
2022/11/05 03:01:40;;;;;;;3.80;3.00;;;7.60;99.90;;;;;;461392;252;29442;-69
2022/11/05 03:03:41;;;;;;;3.95;3.10;;;7.50;99.90;;;;;;461395;257;28526;-69
2022/11/05 03:05:42;;;;;;;3.20;2.80;;;7.60;99.90;;;;;;461419;257;29201;-70
2022/11/05 03:07:43;;;;;;;3.50;3.20;;;7.60;99.90;;;;;;461406;257;28229;-70
2022/11/05 03:09:45;;;;;;;3.40;2.87;;;7.60;99.90;;;;;;461411;257;28296;-70
2022/11/05 03:11:46;;;;;;;3.30;3.00;;;7.60;99.90;;;;;;461396;257;27897;-69
2022/11/05 03:13:47;;;;;;;3.60;3.30;;;7.60;99.90;;;;;;461421;257;28022;-69
2022/11/05 03:15:49;;;;;;;3.17;2.97;;;7.50;99.90;;;;;;461424;257;28043;-71
2022/11/05 03:17:50;;;;;;;2.87;2.50;;;7.50;99.90;;;;;;461351;257;28372;-70
2022/11/05 03:19:51;;;;;;;3.25;2.95;;;7.60;99.90;;;;;;461426;257;27668;-69
2022/11/05 03:21:52;;;;;;;4.20;2.80;;;7.60;99.90;;;;;;461416;257;28039;-71
2022/11/05 03:23:53;;;;;;;3.03;2.40;;;7.50;99.90;;;;;;461413;257;29049;-70
2022/11/05 03:25:55;;;;;;;4.50;2.83;;;7.50;99.90;;;;;;461403;257;29500;-70
2022/11/05 03:27:56;;;;;;;3.17;2.87;;;7.50;99.90;;;;;;461396;257;28341;-69
2022/11/05 03:29:57;;;;;;;3.43;3.13;;;7.50;99.90;;;;;;461396;257;28141;-70
2022/11/05 03:31:58;;;;;;;3.20;2.80;;;7.40;99.90;;;;;;461351;257;28600;-70
2022/11/05 03:34:00;;;;;;;3.90;2.57;;;7.40;99.90;;;;;;461417;257;28603;-70
2022/11/05 03:36:01;;;;;;;3.30;2.93;;;7.40;99.90;;;;;;461407;257;28504;-70
2022/11/05 03:38:02;;;;;;;4.20;2.57;;;7.30;99.90;;;;;;461395;257;27883;-70
2022/11/05 03:40:03;;;;;;;4.43;3.28;;;7.30;99.90;;;;;;461363;257;28942;-70
2022/11/05 03:42:05;;;;;;;3.17;2.70;;;7.30;99.90;;;;;;461409;257;27662;-71
2022/11/05 03:44:06;;;;;;;3.47;2.50;;;7.30;99.90;;;;;;461399;257;28608;-70
2022/11/05 03:46:07;;;;;;;3.30;3.00;;;7.30;99.90;;;;;;461384;257;27596;-69
2022/11/05 03:48:09;;;;;;;3.30;3.00;;;7.30;99.90;;;;;;461400;257;28252;-70
2022/11/05 03:50:11;;;;;;;3.37;2.70;;;7.20;99.90;;;;;;461398;257;28028;-70
2022/11/05 03:52:11;;;;;;;3.17;2.87;;;7.20;99.90;;;;;;461323;257;28961;-71
2022/11/05 03:54:12;;;;;;;2.77;2.50;;;7.20;99.90;;;;;;461410;257;28673;-70
2022/11/05 03:56:13;;;;;;;2.90;2.70;;;7.30;99.90;;;;;;461396;257;28551;-70
2022/11/05 03:58:15;;;;;;;2.67;2.47;;;7.20;99.90;;;;;;461375;257;28681;-69
2022/11/05 04:00:16;;;;;;;2.37;2.27;;;7.20;99.90;;;;;;461403;257;29435;-70
2022/11/05 04:02:17;;;;;;;2.50;2.30;;;7.20;99.90;;;;;;461383;257;28625;-71
2022/11/05 04:04:18;;;;;;;3.17;2.03;;;7.20;99.90;;;;;;461399;257;28904;-70
2022/11/05 04:13:24;;;;;;;2.53;2.33;;;7.10;99.90;;;;;;461412;257;27654;-70
2022/11/05 04:15:26;;;;;;;2.70;2.43;;;7.10;99.90;;;;;;461423;257;28025;-71
2022/11/05 04:17:27;;;;;;;2.27;2.07;;;7.10;99.90;;;;;;461411;257;28301;-69
2022/11/05 04:24:07;;;;;;;2.40;2.20;;;7.00;99.90;;;;;;461427;257;27547;-70
2022/11/05 04:26:08;;;;;;;2.80;2.47;;;7.10;99.90;;;;;;461429;257;27580;-69
2022/11/05 04:28:10;;;;;;;2.15;1.95;;;7.10;99.90;;;;;;461434;257;28520;-70
2022/11/05 04:30:17;;;;;;;2.28;2.10;;;7.10;99.90;;;;;;461426;257;28016;-69
2022/11/05 04:32:18;;;;;;;3.10;2.60;;;7.10;99.90;;;;;;461418;257;27576;-70
2022/11/05 04:34:20;;;;;;;2.30;2.10;;;7.10;99.90;;;;;;461359;257;28734;-70
2022/11/05 04:36:21;;;;;;;2.40;2.00;;;7.10;99.90;;;;;;461404;258;29477;-67
2022/11/05 04:38:22;;;;;;;2.37;2.17;;;7.10;99.90;;;;;;461422;257;29411;-68
2022/11/05 04:40:24;;;;;;;2.70;2.43;;;7.10;99.90;;;;;;461443;257;27556;-68
2022/11/05 04:42:25;;;;;;;2.22;2.12;;;7.10;99.90;;;;;;461450;257;27579;-70
2022/11/05 04:44:26;;;;;;;2.53;2.33;;;7.10;99.90;;;;;;461445;257;27557;-69
2022/11/05 04:46:27;;;;;;;2.30;2.10;;;7.10;99.90;;;;;;461429;257;28099;-69
2022/11/05 04:48:29;;;;;;;2.13;2.03;;;7.10;99.90;;;;;;461444;257;28411;-71
2022/11/05 04:50:30;;;;;;;2.30;2.10;;;7.10;99.90;;;;;;461418;257;28930;-70
2022/11/05 04:52:31;;;;;;;2.23;1.87;;;7.10;99.90;;;;;;461424;257;27579;-70
2022/11/05 04:54:32;;;;;;;2.10;2.00;;;7.10;99.90;;;;;;461442;257;28115;-69
2022/11/05 04:56:34;;;;;;;2.43;2.17;;;7.10;99.90;;;;;;461434;257;28114;-70
2022/11/05 04:58:35;;;;;;;2.45;2.25;;;7.10;99.90;;;;;;461387;257;28174;-70
2022/11/05 05:00:36;;;;;;;1.90;1.80;;;7.10;99.90;;;;;;461422;257;27993;-70
2022/11/05 05:02:37;;;;;;;1.90;1.80;;;7.10;99.90;;;;;;461428;257;27664;-70
2022/11/05 05:04:39;;;;;;;2.00;1.90;;;7.10;99.90;;;;;;461308;257;28282;-69
2022/11/05 05:06:40;;;;;;;1.87;1.77;;;7.10;99.90;;;;;;461405;257;27536;-70
2022/11/05 05:08:41;;;;;;;2.33;2.12;;;7.20;99.90;;;;;;461414;257;28955;-70
2022/11/05 05:10:42;;;;;;;2.30;2.10;;;7.20;99.90;;;;;;461406;257;27465;-69
2022/11/05 05:12:44;;;;;;;2.13;2.00;;;7.20;99.90;;;;;;461435;257;28951;-69
2022/11/05 05:14:45;;;;;;;1.93;1.83;;;7.20;99.90;;;;;;461392;257;28959;-70
2022/11/05 05:16:46;;;;;;;2.30;2.10;;;7.20;99.90;;;;;;461411;257;28074;-69
2022/11/05 05:18:47;;;;;;;2.30;2.10;;;7.20;99.90;;;;;;461388;257;29437;-70
2022/11/05 05:23:08;;;;;;;2.00;1.80;;;7.20;99.90;;;;;;461410;257;27817;-70
2022/11/05 05:25:09;;;;;;;2.03;1.80;;;7.20;99.90;;;;;;461411;257;28965;-71
2022/11/05 05:27:11;;;;;;;2.20;2.00;;;7.20;99.90;;;;;;461449;257;27644;-69
2022/11/05 05:29:12;;;;;;;2.67;2.50;;;7.20;99.90;;;;;;461400;257;28139;-70
2022/11/05 05:31:13;;;;;;;2.93;2.53;;;7.20;99.90;;;;;;461418;257;29349;-69
2022/11/05 05:33:14;;;;;;;2.67;2.47;;;7.20;99.90;;;;;;461422;257;28355;-70
2022/11/05 05:35:16;;;;;;;2.03;1.93;;;7.20;99.90;;;;;;461425;257;28526;-70
2022/11/05 05:37:17;;;;;;;2.10;2.00;;;7.20;99.90;;;;;;461417;257;27762;-70
2022/11/05 05:39:18;;;;;;;2.00;1.90;;;7.20;99.90;;;;;;461412;257;28957;-69
2022/11/05 05:41:19;;;;;;;2.60;2.40;;;7.30;99.90;;;;;;461410;257;28905;-69
2022/11/05 05:43:21;;;;;;;2.75;2.55;;;7.30;99.90;;;;;;461426;257;27639;-70
2022/11/05 05:45:22;;;;;;;2.17;2.07;;;7.30;99.90;;;;;;461396;257;27625;-70
2022/11/05 05:47:23;;;;;;;2.33;2.13;;;7.30;99.90;;;;;;461418;257;27687;-70
2022/11/05 05:49:24;;;;;;;4.40;2.23;;;7.30;99.90;;;;;;461197;257;28241;-70
2022/11/05 05:51:26;;;;;;;2.23;2.13;;;7.30;99.90;;;;;;461118;256;28732;-70
2022/11/05 05:53:27;;;;;;;2.20;2.00;;;7.30;99.90;;;;;;461416;257;28149;-70
2022/11/05 05:55:28;;;;;;;2.10;1.93;;;7.30;99.90;;;;;;461399;257;28641;-70
2022/11/05 05:57:29;;;;;;;2.40;2.20;;;7.30;99.90;;;;;;461406;257;28694;-70
2022/11/05 05:59:31;;;;;;;2.37;2.22;;;7.30;99.90;;;;;;461410;257;28534;-70
2022/11/05 06:01:32;;;;;;;3.40;2.43;;;7.20;99.90;;;;;;461428;257;28021;-70
2022/11/05 06:03:33;;;;;;;2.42;2.22;;;7.20;99.90;;;;;;461426;257;28564;-70
2022/11/05 06:05:34;;;;;;;2.45;2.28;;;7.20;99.90;;;;;;461433;257;27579;-70
2022/11/05 06:07:36;;;;;;;2.63;2.43;;;7.10;99.90;;;;;;461427;257;27556;-70
2022/11/05 06:09:37;;;;;;;3.00;2.00;;;7.10;99.90;;;;;;461346;257;27599;-69
2022/11/05 06:11:38;;;;;;;2.17;1.97;;;7.10;99.90;;;;;;461412;257;29058;-71
2022/11/05 06:13:39;;;;;;;2.20;2.10;;;7.10;99.90;;;;;;461427;257;28982;-69
2022/11/05 06:15:41;;;;;;;2.70;2.20;;;7.10;99.90;;;;;;461425;257;28089;-70
2022/11/05 06:17:42;;;;;;;2.05;1.95;;;7.00;99.90;;;;;;461430;257;29448;-69
2022/11/05 06:19:43;;;;;;;2.20;2.00;;;7.00;99.90;;;;;;461426;257;28107;-70
2022/11/05 06:21:44;;;;;;;1.90;1.80;;;7.00;99.90;;;;;;461468;257;27559;-71
2022/11/05 06:23:47;;;;;;;2.10;2.00;;;7.00;99.90;;;;;;461440;257;27898;-69
2022/11/05 06:25:47;;;;;;;2.25;2.12;;;6.90;99.90;;;;;;461338;257;27571;-70
2022/11/05 06:27:48;;;;;;;2.10;2.00;;;6.90;99.90;;;;;;461385;257;27556;-70
2022/11/05 06:29:49;;;;;;;2.20;2.05;;;6.90;99.90;;;;;;461426;257;27579;-69
2022/11/05 06:31:51;;;;;;;2.60;2.40;;;6.90;99.90;;;;;;461388;257;28043;-69
2022/11/05 06:33:52;;;;;;;2.15;2.00;;;7.00;99.90;;;;;;461425;257;29394;-70
2022/11/05 06:35:53;;;;;;;1.87;1.77;;;7.00;99.90;;;;;;461433;257;27567;-70
2022/11/05 06:37:55;;;;;;;2.40;2.20;;;7.00;99.90;;;;;;461406;257;28959;-67
2022/11/05 06:39:56;;;;;;;2.40;2.20;;;7.00;99.90;;;;;;461416;257;27570;-70
2022/11/05 06:41:57;;;;;;;2.30;2.20;;;7.00;99.90;;;;;;461422;257;27604;-71
2022/11/05 06:43:58;;;;;;;2.17;2.03;;;6.90;99.90;;;;;;461367;257;27990;-70
2022/11/05 06:46:00;;;;;;;2.27;2.10;;;6.90;99.90;;;;;;461379;257;29319;-70
2022/11/05 06:48:01;;;;;;;2.12;2.03;;;6.90;99.90;;;;;;461422;257;28483;-69
2022/11/05 06:50:02;;;;;;;1.98;1.87;;;6.80;99.90;;;;;;461402;257;28044;-69
2022/11/05 06:52:03;;;;;;;2.05;1.95;;;6.80;99.90;;;;;;461429;257;28063;-70
2022/11/05 06:54:05;;;;;;;2.53;2.33;;;6.80;99.90;;;;;;461428;257;27687;-70
2022/11/05 06:56:06;;;;;;;2.50;2.30;;;6.80;99.90;;;;;;461426;257;27572;-70
2022/11/05 06:58:07;;;;;;;3.78;2.87;;;6.90;99.90;;;;;;461397;257;27686;-69
2022/11/05 07:00:08;;;;;;;2.30;2.10;;;6.80;99.90;;;;;;461392;257;27599;-69
2022/11/05 07:02:10;;;;;;;2.40;2.20;;;6.80;99.90;;;;;;461422;257;27588;-70
2022/11/05 07:04:11;;;;;;;2.25;2.10;;;6.80;99.90;;;;;;461439;257;28131;-69
2022/11/05 07:06:12;;;;;;;2.40;2.20;;;6.80;99.90;;;;;;461429;257;27569;-70
2022/11/05 07:08:13;;;;;;;2.57;2.37;;;6.80;99.90;;;;;;461422;257;27540;-69
2022/11/05 07:10:15;;;;;;;2.30;2.10;;;6.80;99.90;;;;;;461401;257;28047;-70
2022/11/05 07:12:16;;;;;;;3.60;2.00;;;6.80;99.90;;;;;;461392;257;27675;-71
2022/11/05 07:14:17;;;;;;;2.17;2.00;;;6.70;99.90;;;;;;461387;257;27548;-69
2022/11/05 07:16:18;;;;;;;2.67;2.47;;;6.80;99.90;;;;;;461347;257;28034;-70
2022/11/05 07:18:20;;;;;;;2.40;2.20;;;6.70;99.90;;;;;;461349;257;28922;-70
2022/11/05 07:20:21;;;;;;;2.60;2.40;;;6.70;99.90;;;;;;461390;257;28017;-70
2022/11/05 07:22:22;;;;;;;2.10;2.00;;;6.70;99.90;;;;;;461366;257;27575;-70
2022/11/05 07:24:23;;;;;;;2.53;2.40;;;6.60;99.90;;;;;;461373;258;27524;-70
2022/11/05 07:26:25;;;;;;;2.60;2.40;;;6.60;99.90;;;;;;461299;257;27702;-69
2022/11/05 07:28:26;;;;;;;1.98;1.85;;;6.60;99.90;;;;;;461395;257;27908;-70
2022/11/05 07:30:27;;;;;;;2.67;2.47;;;6.70;99.90;;;;;;461420;257;27539;-69
2022/11/05 07:32:28;;;;;;;2.15;2.00;;;6.70;99.90;;;;;;461423;257;28031;-70
2022/11/05 07:34:30;;;;;;;2.20;2.08;;;6.70;99.90;;;;;;461428;257;27527;-69
2022/11/05 07:36:31;;;;;;;2.17;2.08;;;6.60;99.90;;;;;;461402;257;27648;-70
2022/11/05 07:38:32;;;;;;;2.37;2.22;;;6.70;99.90;;;;;;461407;257;27640;-70
2022/11/05 07:40:33;;;;;;;2.40;2.20;;;6.70;99.90;;;;;;461395;257;27538;-69
2022/11/05 07:42:35;;;;;;;2.40;2.20;;;6.70;99.90;;;;;;461388;257;27500;-70
2022/11/05 07:44:36;;;;;;;3.30;2.27;;;6.70;99.90;;;;;;461414;257;27988;-69
2022/11/05 07:46:37;;;;;;;2.80;2.42;;;6.70;99.90;;;;;;461422;257;29519;-70
2022/11/05 07:48:39;;;;;;;2.40;2.20;;;6.80;99.90;;;;;;461451;257;27499;-70
2022/11/05 07:50:40;;;;;;;2.12;1.95;;;6.80;99.90;;;;;;461454;257;27607;-70
2022/11/05 07:52:41;;;;;;;2.70;2.50;;;6.90;99.90;;;;;;461466;257;27688;-70
2022/11/05 07:54:42;;;;;;;2.33;2.20;;;7.00;99.90;;;;;;461438;257;28477;-70
2022/11/05 07:56:44;;;;;;;2.30;2.20;;;7.00;99.90;;;;;;461345;257;27703;-70
2022/11/05 07:58:45;;;;;;;2.87;2.57;;;7.10;99.90;;;;;;461440;257;28340;-70
2022/11/05 08:00:46;;;;;;;2.97;2.77;;;7.10;99.90;;;;;;461408;257;28264;-69
2022/11/05 08:02:47;;;;;;;3.23;2.70;;;7.10;99.90;;;;;;461399;257;28443;-70
2022/11/05 08:04:49;;;;;;;2.80;2.60;;;7.20;99.90;;;;;;461391;257;27655;-69
2022/11/05 08:06:50;;;;;;;3.17;2.87;;;7.20;99.90;;;;;;461429;257;28156;-70
2022/11/05 08:08:51;;;;;;;3.10;2.80;;;7.20;99.90;;;;;;461433;257;28470;-69
2022/11/05 08:10:52;;;;;;;3.40;3.10;;;7.20;99.90;;;;;;461408;257;27656;-70
2022/11/05 08:12:54;;;;;;;2.90;2.70;;;7.20;99.90;;;;;;461447;257;28087;-70
2022/11/05 08:14:55;;;;;;;3.30;3.00;;;7.30;99.90;;;;;;461423;257;28487;-70
2022/11/05 08:16:56;;;;;;;2.73;2.50;;;7.30;99.90;;;;;;461409;257;28384;-69
2022/11/05 08:18:57;;;;;;;2.80;2.60;;;7.30;99.90;;;;;;461419;257;29199;-70
2022/11/05 08:20:59;;;;;;;2.70;2.50;;;7.40;99.90;;;;;;461438;257;28240;-70
2022/11/05 08:23:00;;;;;;;3.27;2.80;;;7.40;99.90;;;;;;461417;257;28591;-71
2022/11/05 08:25:01;;;;;;;2.70;2.50;;;7.40;99.90;;;;;;461402;257;28022;-70
2022/11/05 08:27:02;;;;;;;2.63;2.43;;;7.40;99.90;;;;;;461413;257;28089;-70
2022/11/05 08:29:04;;;;;;;3.40;3.10;;;7.50;99.90;;;;;;461429;257;28060;-69
2022/11/05 08:31:05;;;;;;;3.47;3.17;;;7.70;99.90;;;;;;461444;257;28078;-70
2022/11/05 08:33:06;;;;;;;3.20;3.00;;;7.80;99.90;;;;;;461430;257;27977;-71
2022/11/05 08:35:07;;;;;;;3.40;3.10;;;8.00;99.90;;;;;;461440;257;28050;-70
2022/11/05 08:37:09;;;;;;;3.50;3.20;;;8.10;99.90;;;;;;461419;257;28135;-70
2022/11/05 08:39:10;;;;;;;4.30;3.77;;;8.20;99.90;;;;;;461419;257;28008;-70
2022/11/05 08:41:11;;;;;;;4.07;3.67;;;8.30;99.90;;;;;;461240;257;27892;-70
2022/11/05 08:43:12;;;;;;;5.20;3.70;;;8.30;99.90;;;;;;460375;257;27958;-70
2022/11/05 08:45:13;;;;;;;4.73;3.53;;;8.50;99.90;;;;;;461023;257;27895;-70
2022/11/05 08:47:15;;;;;;;3.50;3.20;;;8.50;99.90;;;;;;461212;257;28270;-69
2022/11/05 08:49:16;;;;;;;4.10;3.70;;;8.30;99.90;;;;;;461354;257;27892;-69
2022/11/05 08:51:17;;;;;;;5.03;3.33;;;8.30;99.90;;;;;;461408;258;27996;-69
2022/11/05 08:53:19;;;;;;;4.80;3.43;;;8.20;99.90;;;;;;461412;257;28713;-70
2022/11/05 08:55:20;;;;;;;3.93;3.60;;;8.10;99.90;;;;;;461367;257;28572;-70
2022/11/05 08:57:21;;;;;;;4.10;3.80;;;8.10;99.90;;;;;;461411;257;28613;-70
2022/11/05 08:59:22;;;;;;;4.00;3.67;;;8.00;99.90;;;;;;461423;257;28348;-69
2022/11/05 09:01:24;;;;;;;4.00;3.70;;;8.10;99.90;;;;;;461419;257;28602;-70
2022/11/05 09:03:25;;;;;;;6.00;3.50;;;8.00;99.90;;;;;;461423;257;28479;-71
2022/11/05 09:05:26;;;;;;;3.73;3.30;;;8.00;99.90;;;;;;461421;257;27802;-70
2022/11/05 09:07:27;;;;;;;3.67;3.37;;;7.90;99.90;;;;;;461420;257;28015;-69
2022/11/05 09:09:28;;;;;;;3.70;3.30;;;7.90;99.90;;;;;;461423;257;28053;-69
2022/11/05 09:11:30;;;;;;;4.10;3.53;;;8.10;99.90;;;;;;461429;257;28142;-70
2022/11/05 09:13:31;;;;;;;4.97;3.73;;;8.20;99.90;;;;;;461434;257;27677;-69
2022/11/05 09:15:32;;;;;;;5.40;3.70;;;8.20;99.90;;;;;;461407;257;28019;-70
2022/11/05 09:17:33;;;;;;;4.10;3.43;;;8.30;99.90;;;;;;461414;257;28176;-70
2022/11/05 09:19:35;;;;;;;4.30;3.33;;;8.40;99.90;;;;;;461413;257;27810;-70
2022/11/05 09:21:36;;;;;;;3.47;3.17;;;8.30;99.90;;;;;;461415;257;27802;-70
2022/11/05 09:23:37;;;;;;;5.73;3.47;;;8.30;99.90;;;;;;461373;257;28226;-71
2022/11/05 09:25:38;;;;;;;3.50;3.20;;;8.30;99.90;;;;;;461421;257;28000;-70
2022/11/05 09:27:40;;;;;;;3.57;3.27;;;8.40;99.90;;;;;;461154;257;28892;-70
2022/11/05 09:29:41;;;;;;;6.33;3.73;;;8.40;99.90;;;;;;461422;257;28949;-70
2022/11/05 09:31:42;;;;;;;4.50;4.07;;;8.50;99.90;;;;;;461426;257;28024;-69
2022/11/05 09:33:43;;;;;;;6.37;4.17;;;8.50;99.90;;;;;;461455;257;28406;-71
2022/11/05 09:35:45;;;;;;;4.13;3.73;;;8.50;99.90;;;;;;461450;257;28330;-70
2022/11/05 09:37:46;;;;;;;4.40;4.00;;;8.40;99.90;;;;;;461450;257;28268;-71
2022/11/05 09:39:47;;;;;;;7.97;4.10;;;8.40;99.90;;;;;;461423;257;28320;-70
2022/11/05 09:41:48;;;;;;;5.53;3.87;;;8.30;99.90;;;;;;461447;257;28138;-69
2022/11/05 09:43:50;;;;;;;4.53;4.03;;;8.40;99.90;;;;;;461449;257;28124;-70
2022/11/05 09:45:51;;;;;;;4.20;3.60;;;8.50;99.90;;;;;;461423;257;28028;-70
2022/11/05 09:47:52;;;;;;;4.93;4.43;;;8.50;99.90;;;;;;461429;257;28087;-70
2022/11/05 09:49:53;;;;;;;3.53;3.20;;;8.50;99.90;;;;;;461409;257;28193;-70
2022/11/05 09:51:55;;;;;;;5.27;3.73;;;8.40;99.90;;;;;;461428;257;28122;-70
2022/11/05 09:53:56;;;;;;;3.40;3.10;;;8.60;99.90;;;;;;461425;257;28068;-72
2022/11/05 09:55:57;;;;;;;5.53;4.00;;;8.80;99.90;;;;;;461421;257;28000;-70
2022/11/05 09:57:58;;;;;;;7.30;3.73;;;8.90;99.90;;;;;;461404;257;27954;-70
2022/11/05 10:00:00;;;;;;;4.70;3.40;;;9.10;99.90;;;;;;461393;257;27888;-70
2022/11/05 10:02:01;;;;;;;4.50;3.40;;;9.20;99.90;;;;;;461425;257;28005;-69
2022/11/05 10:04:02;;;;;;;4.60;3.60;;;9.20;99.90;;;;;;461407;257;27910;-70
2022/11/05 10:06:03;;;;;;;8.23;4.70;;;9.10;99.90;;;;;;461411;257;27870;-70
2022/11/05 10:08:05;;;;;;;5.13;3.60;;;9.10;99.90;;;;;;461390;257;28045;-70
2022/11/05 10:10:06;;;;;;;4.53;4.13;;;9.10;99.90;;;;;;461401;257;28195;-70
2022/11/05 10:12:07;;;;;;;4.83;3.50;;;9.00;99.90;;;;;;461422;257;28410;-70
2022/11/05 10:14:08;;;;;;;6.20;3.70;;;9.00;99.90;;;;;;461413;257;28532;-70
2022/11/05 10:16:10;;;;;;;4.20;3.80;;;8.90;99.90;;;;;;461405;257;28537;-70
2022/11/05 10:18:11;;;;;;;3.93;3.50;;;8.80;99.90;;;;;;461416;257;28535;-70
2022/11/05 10:20:12;;;;;;;6.03;3.53;;;8.70;99.90;;;;;;461414;257;28384;-70
2022/11/05 10:22:15;;;;;;;4.63;3.47;;;8.70;99.90;;;;;;461408;257;27684;-69
2022/11/05 10:24:15;;;;;;;5.37;3.60;;;8.90;99.90;;;;;;461361;257;28060;-71
2022/11/05 10:26:16;;;;;;;5.67;3.80;;;8.90;99.90;;;;;;461392;257;28079;-70
2022/11/05 10:28:17;;;;;;;5.27;3.60;;;9.00;99.90;;;;;;461422;257;27938;-71
2022/11/05 10:30:18;;;;;;;4.40;3.73;;;8.90;99.90;;;;;;461419;257;28103;-69
2022/11/05 10:32:20;;;;;;;3.63;3.20;;;8.90;99.90;;;;;;461416;257;27769;-70
2022/11/05 10:34:21;;;;;;;4.10;3.67;;;8.90;99.90;;;;;;461425;257;28212;-71
2022/11/05 10:36:22;;;;;;;4.77;3.70;;;9.00;99.90;;;;;;461398;257;28052;-70
2022/11/05 10:38:23;;;;;;;4.23;3.30;;;9.20;99.90;;;;;;461412;257;28089;-70
2022/11/05 10:40:25;;;;;;;6.63;3.70;;;9.20;99.90;;;;;;461401;257;28029;-70
2022/11/05 10:42:26;;;;;;;4.80;3.67;;;9.00;99.90;;;;;;461414;257;27804;-70
2022/11/05 10:44:27;;;;;;;4.83;3.30;;;9.10;99.90;;;;;;461366;257;28170;-71
2022/11/05 10:46:28;;;;;;;4.90;3.50;;;9.20;99.90;;;;;;461419;257;28136;-70
2022/11/05 10:48:30;;;;;;;4.80;3.57;;;9.30;99.90;;;;;;461410;257;27788;-71
2022/11/05 10:50:31;;;;;;;4.70;3.53;;;9.30;99.90;;;;;;461427;257;28584;-70
2022/11/05 10:52:32;;;;;;;3.90;2.87;;;9.40;99.90;;;;;;461385;257;28657;-70
2022/11/05 10:54:34;;;;;;;4.13;3.73;;;9.50;99.90;;;;;;461403;257;28555;-71
2022/11/05 10:56:35;;;;;;;5.07;4.10;;;9.60;99.90;;;;;;461418;257;28557;-70
2022/11/05 10:58:40;;;;;;;5.90;4.03;;;9.60;99.90;;;;;;461412;257;28408;-70
2022/11/05 11:00:37;;;;;;;5.50;4.07;;;9.70;99.90;;;;;;461158;252;28635;-70
2022/11/05 11:02:38;;;;;;;5.17;4.10;;;9.80;99.90;;;;;;461416;257;28065;-70
2022/11/05 11:04:40;;;;;;;4.90;4.20;;;9.90;99.90;;;;;;461422;257;28133;-72
2022/11/05 11:06:41;;;;;;;4.00;3.60;;;9.80;99.90;;;;;;461411;257;28033;-70
2022/11/05 11:08:42;;;;;;;4.37;3.97;;;9.90;99.90;;;;;;461422;257;28055;-70
2022/11/05 11:10:43;;;;;;;3.90;3.50;;;9.90;99.90;;;;;;461362;257;28090;-70
2022/11/05 11:12:47;;;;;;;6.53;3.40;;;10.00;99.90;;;;;;461395;257;28177;-70
2022/11/05 11:14:46;;;;;;;4.27;3.87;;;10.20;99.90;;;;;;461286;257;28085;-71
2022/11/05 11:16:49;;;;;;;4.60;4.17;;;10.40;99.90;;;;;;461418;257;28085;-70
2022/11/05 11:18:48;;;;;;;5.70;3.17;;;10.10;99.90;;;;;;461357;257;28123;-71
2022/11/05 11:20:50;;;;;;;4.37;3.57;;;10.00;99.90;;;;;;461404;257;28417;-71